GUCY

Details ICAO GUCY (CKY)
Name CONAKRY
Region Guinea
Timezone Africa/Conakry (UTC+0.0)
Plans Departing 87
Arriving 84
Stats Elevation 72 ft / 22 m (AMSL)
Location 9.576897° -13.611879°
Runways 1
Magnetic Variation 6.956° W
Sunrise 2018-05-26 06:34:21 UTC / 2018-05-26 06:34:21 Local
Sunset 2018-05-26 19:11:31 UTC / 2018-05-26 19:11:31 Local
Advertisement - Login to hide

Runways

ID Width Length Bearing (true) Bearing (mag) Surface Threshold Offset Overrun Length
06 148 ft / 45 m 10,836 ft / 3,303 m 49.26° 56.22° Asphalt 0 ft / 0 m 197 ft / 60 m
24 148 ft / 45 m 10,836 ft / 3,303 m 229.27° 236.23° Asphalt 0 ft / 0 m 197 ft / 60 m

Map

Weather


0- 5 10 15 20 25 30 35+ Temperature / ° C

Clouds and Precipitation
Forecast for 2018-05-26 12:00 UTC. Updated 5 hours ago

Ground ~20,000 ft ~40,000 ft Winds

METAR

Not found

TAF

TAF GUCY 261100Z 2612/2718 28006KT 9999 SCT015 SCT110 PROB30 TEMPO 2622/2702 12010KT 4000 TSRA BKN013 FEW023CB BKN100

Frequencies

Ground 129.10 MHz GND
Approach 119.70 MHz APP
Tower 118.70 MHz TWR
Warning: Do not use this data for real-world aviation or navigation. No guarantee of current accuracy is given.